createdAt,value
2018-07-11T12:08:48.028Z,28.80
2018-07-11T12:11:17.366Z,29.10
2018-07-11T12:13:47.808Z,29.20
2018-07-11T12:16:17.136Z,29.20
2018-07-11T12:18:46.453Z,29.20
2018-07-11T12:21:16.007Z,29.20
2018-07-11T12:23:46.256Z,29.30
2018-07-11T12:26:17.069Z,29.80
2018-07-11T12:28:46.391Z,30.30
2018-07-11T12:31:15.906Z,30.80
2018-07-11T12:33:45.445Z,31.20
2018-07-11T12:36:14.752Z,31.60
2018-07-11T12:38:45.114Z,31.90
2018-07-11T12:41:14.516Z,32.00
2018-07-11T12:43:44.056Z,31.90
2018-07-11T12:46:13.388Z,31.80
2018-07-11T12:48:47.912Z,31.50
2018-07-11T12:51:17.178Z,31.10
2018-07-11T12:53:46.539Z,30.80
2018-07-11T12:56:16.913Z,30.50
2018-07-11T12:58:46.505Z,30.10
2018-07-11T13:01:16.108Z,29.70
2018-07-11T13:03:46.200Z,29.30
2018-07-11T13:06:15.681Z,28.90
2018-07-11T13:08:45.192Z,28.70
2018-07-11T13:11:14.541Z,28.50
2018-07-11T13:13:44.012Z,28.40
2018-07-11T13:16:13.618Z,28.20
2018-07-11T13:18:43.148Z,27.90
2018-07-11T13:21:13.183Z,27.60
2018-07-11T13:23:42.521Z,27.30
2018-07-11T13:26:11.978Z,27.00
2018-07-11T13:31:10.217Z,26.40
2018-07-11T13:33:40.285Z,26.10
2018-07-11T13:36:09.802Z,25.90
2018-07-11T13:38:39.151Z,25.70
2018-07-11T13:41:08.562Z,25.50
2018-07-11T13:43:38.493Z,25.30
2018-07-11T13:46:07.926Z,25.10
2018-07-11T13:48:38.011Z,24.90
2018-07-11T13:51:07.413Z,24.80
2018-07-11T13:53:37.870Z,24.70
2018-07-11T13:56:07.279Z,24.60
2018-07-11T13:58:37.801Z,24.60
2018-07-11T14:01:07.460Z,24.40
2018-07-11T14:03:37.427Z,24.40
2018-07-11T14:06:07.372Z,24.30
2018-07-11T14:08:36.751Z,24.20
2018-07-11T14:11:06.823Z,24.20
2018-07-11T14:13:37.047Z,24.10
2018-07-11T14:16:07.157Z,24.00
2018-07-11T14:18:36.861Z,23.90
2018-07-11T14:21:06.895Z,23.60
2018-07-11T14:23:39.733Z,23.30
2018-07-11T14:26:10.099Z,22.80
2018-07-11T14:28:45.404Z,22.20
2018-07-11T14:33:49.140Z,21.00
2018-07-11T14:36:18.662Z,20.40
2018-07-11T14:38:48.083Z,19.80
2018-07-11T14:41:17.467Z,19.40
2018-07-11T14:43:47.839Z,19.00
2018-07-11T14:46:17.817Z,18.70
2018-07-11T14:48:47.362Z,18.50
2018-07-11T14:51:16.901Z,18.40
2018-07-11T14:53:46.572Z,18.30
2018-07-11T14:56:15.966Z,18.30
2018-07-11T14:58:45.377Z,18.30
2018-07-11T15:01:14.782Z,18.40
2018-07-11T15:03:44.077Z,18.50
2018-07-11T15:06:14.472Z,18.50
2018-07-11T15:08:44.059Z,18.50
2018-07-11T15:11:13.328Z,18.60
2018-07-11T15:13:43.891Z,18.60
2018-07-11T15:16:14.496Z,18.70
2018-07-11T15:18:44.590Z,18.80
2018-07-11T15:21:13.867Z,18.90
2018-07-11T15:23:44.149Z,18.90
2018-07-11T15:26:13.942Z,18.90
2018-07-11T15:28:43.945Z,18.90
2018-07-11T15:31:13.692Z,19.00
2018-07-11T15:33:43.389Z,18.90
2018-07-11T15:36:13.046Z,18.90
2018-07-11T15:38:42.751Z,18.90
2018-07-11T15:41:12.318Z,18.90
2018-07-11T15:43:42.408Z,18.90
2018-07-11T15:46:12.130Z,18.90
2018-07-11T15:48:42.187Z,18.90
2018-07-11T15:53:40.563Z,19.00
2018-07-11T15:56:10.177Z,19.10
2018-07-11T15:58:40.029Z,19.20
2018-07-11T16:01:11.031Z,19.30
2018-07-11T16:03:44.756Z,19.40
2018-07-11T16:06:15.301Z,19.40
2018-07-11T16:08:49.903Z,19.50
2018-07-11T16:11:19.689Z,19.60
2018-07-11T16:13:49.234Z,19.70
2018-07-11T16:16:19.035Z,19.70
2018-07-11T16:18:48.645Z,19.80
2018-07-11T16:21:18.150Z,19.90
2018-07-11T16:23:47.755Z,20.00
2018-07-11T16:26:17.322Z,20.10
2018-07-11T16:28:58.157Z,20.20
2018-07-11T16:31:37.815Z,20.30
2018-07-11T16:34:08.255Z,20.30
2018-07-11T16:39:08.876Z,20.40
2018-07-11T16:41:38.437Z,20.50
2018-07-11T16:44:07.993Z,20.50
2018-07-11T16:46:37.646Z,20.60
2018-07-11T16:49:07.227Z,20.70
2018-07-11T17:14:28.220Z,21.10
2018-07-11T17:20:18.433Z,21.30
2018-07-11T17:22:56.726Z,21.20
2018-07-11T17:25:38.918Z,21.10
2018-07-11T17:28:08.514Z,21.10
2018-07-11T17:30:40.498Z,21.00
2018-07-11T17:33:14.187Z,20.90
2018-07-11T17:35:57.455Z,20.80
2018-07-11T17:38:34.458Z,20.70
2018-07-11T17:41:10.074Z,20.60
2018-07-11T17:44:06.064Z,20.60
2018-07-11T17:54:17.831Z,20.50
2018-07-11T17:56:57.605Z,20.30
2018-07-11T17:59:41.275Z,20.30
2018-07-11T18:02:47.462Z,20.30
2018-07-11T18:05:35.098Z,20.20
2018-07-11T18:08:09.173Z,20.20
2018-07-11T18:10:48.260Z,20.20
2018-07-11T18:13:39.222Z,20.10
2018-07-11T18:16:26.620Z,20.10
2018-07-11T18:19:15.329Z,20.00
2018-07-11T18:22:02.804Z,19.90
2018-07-11T18:26:47.775Z,19.90
2018-07-11T18:29:34.229Z,19.80
2018-07-11T18:35:43.949Z,19.70
2018-07-11T18:38:23.961Z,19.70
2018-07-11T18:41:05.819Z,19.50
2018-07-11T18:43:54.964Z,19.50
2018-07-11T18:53:02.459Z,19.50
2018-07-11T18:56:18.699Z,19.60
2018-07-11T19:01:03.368Z,19.40
2018-07-11T19:03:43.793Z,19.30
2018-07-11T19:09:32.490Z,19.30
2018-07-11T19:15:14.727Z,19.20
2018-07-11T19:18:08.451Z,19.20
2018-07-11T19:30:33.743Z,19.10
2018-07-11T19:33:28.198Z,19.10
2018-07-11T19:37:06.115Z,19.00
2018-07-11T19:41:50.214Z,18.90
2018-07-11T19:44:31.627Z,18.80
2018-07-11T19:47:12.018Z,18.60
2018-07-11T19:53:05.257Z,18.50
2018-07-11T19:56:01.392Z,18.40
2018-07-11T19:58:32.473Z,18.40
2018-07-11T20:01:03.753Z,18.30
2018-07-11T20:03:34.848Z,18.30
2018-07-11T20:06:05.950Z,18.30
2018-07-11T20:08:37.300Z,18.20
2018-07-11T20:11:08.409Z,18.20
2018-07-11T20:13:39.515Z,18.10
2018-07-11T20:26:15.057Z,17.90
2018-07-11T20:32:13.415Z,17.90
2018-07-11T20:34:45.583Z,17.90
2018-07-11T20:37:16.369Z,17.70
2018-07-11T20:39:47.121Z,17.70
2018-07-11T20:43:27.444Z,17.70
2018-07-11T20:45:58.272Z,17.70
2018-07-11T21:05:35.363Z,17.80
2018-07-11T21:08:16.332Z,17.90
2018-07-11T21:18:14.155Z,18.00
2018-07-11T21:20:45.059Z,18.00
2018-07-11T21:26:27.576Z,18.00
2018-07-11T21:28:57.021Z,18.00
2018-07-11T21:31:28.623Z,18.00
2018-07-11T21:33:58.491Z,18.00
2018-07-11T21:36:28.290Z,18.00
2018-07-11T21:38:57.933Z,18.00
2018-07-11T21:41:40.855Z,18.10
2018-07-11T21:47:46.551Z,18.10
2018-07-11T21:53:53.109Z,18.00
2018-07-11T21:57:18.958Z,17.90
2018-07-11T22:00:16.032Z,17.90
2018-07-11T22:02:47.087Z,17.90
2018-07-11T22:05:21.728Z,18.00
2018-07-11T22:08:20.604Z,18.00
2018-07-11T22:11:07.182Z,18.00
2018-07-11T22:13:38.860Z,18.10
2018-07-11T22:16:08.569Z,18.10
2018-07-11T22:18:43.327Z,18.00
2018-07-11T22:21:12.668Z,18.10
2018-07-11T22:23:46.639Z,18.10
2018-07-11T22:26:17.070Z,18.10
2018-07-11T22:28:45.004Z,18.10
2018-07-11T22:31:13.111Z,18.10
2018-07-11T22:33:41.358Z,18.10
2018-07-11T22:36:09.555Z,18.10
2018-07-11T22:38:37.623Z,18.10
2018-07-11T22:41:05.754Z,18.00
2018-07-11T22:43:33.759Z,18.00
2018-07-11T22:46:01.826Z,17.90
2018-07-11T22:48:29.779Z,17.90
2018-07-11T22:50:58.429Z,17.90
2018-07-11T22:53:27.153Z,17.80
2018-07-11T22:55:58.367Z,17.80
2018-07-11T22:58:26.720Z,17.70
2018-07-11T23:00:56.008Z,17.70
2018-07-11T23:03:27.306Z,17.60
2018-07-11T23:05:59.340Z,17.60
2018-07-11T23:08:30.705Z,17.60
2018-07-11T23:11:03.844Z,17.50
2018-07-11T23:13:44.270Z,17.50
2018-07-11T23:16:14.394Z,17.50
2018-07-11T23:18:46.753Z,17.50
2018-07-11T23:21:18.791Z,17.40
2018-07-11T23:23:52.433Z,17.40
2018-07-11T23:26:20.462Z,17.40
2018-07-11T23:28:54.045Z,17.40
2018-07-11T23:31:36.495Z,17.30
2018-07-11T23:34:08.460Z,17.40
2018-07-11T23:36:42.447Z,17.30
2018-07-11T23:39:14.085Z,17.30
2018-07-11T23:41:42.259Z,17.30
2018-07-11T23:44:11.450Z,17.40
2018-07-11T23:46:39.619Z,17.30
2018-07-11T23:49:07.643Z,17.30
2018-07-11T23:51:38.929Z,17.30
2018-07-11T23:54:16.385Z,17.30
2018-07-11T23:56:48.103Z,17.30
